sensor_id;sensor_type;location;lat;lon;timestamp;pressure;altitude;pressure_sealevel;temperature
29549;BMP280;16487;53.094;8.800;2024-03-22T00:00:44;101887.13;;;9.63
29549;BMP280;16487;53.094;8.800;2024-03-22T00:03:10;101888.72;;;9.64
29549;BMP280;16487;53.094;8.800;2024-03-22T00:05:37;101873.31;;;9.71
29549;BMP280;16487;53.094;8.800;2024-03-22T00:08:03;101872.59;;;9.64
29549;BMP280;16487;53.094;8.800;2024-03-22T00:10:30;101872.00;;;9.62
29549;BMP280;16487;53.094;8.800;2024-03-22T00:12:56;101884.63;;;9.73
29549;BMP280;16487;53.094;8.800;2024-03-22T00:15:24;101874.56;;;9.69
29549;BMP280;16487;53.094;8.800;2024-03-22T00:17:50;101878.91;;;9.70
29549;BMP280;16487;53.094;8.800;2024-03-22T00:20:16;101879.50;;;9.72
29549;BMP280;16487;53.094;8.800;2024-03-22T00:22:42;101882.44;;;9.70
29549;BMP280;16487;53.094;8.800;2024-03-22T00:25:08;101870.38;;;9.73
29549;BMP280;16487;53.094;8.800;2024-03-22T00:27:34;101867.44;;;9.74
29549;BMP280;16487;53.094;8.800;2024-03-22T00:30:01;101873.16;;;9.78
29549;BMP280;16487;53.094;8.800;2024-03-22T00:32:28;101868.25;;;9.75
29549;BMP280;16487;53.094;8.800;2024-03-22T00:34:54;101866.38;;;9.75
29549;BMP280;16487;53.094;8.800;2024-03-22T00:37:20;101869.19;;;9.80
29549;BMP280;16487;53.094;8.800;2024-03-22T00:39:47;101874.56;;;9.80
29549;BMP280;16487;53.094;8.800;2024-03-22T00:42:13;101868.84;;;9.89
29549;BMP280;16487;53.094;8.800;2024-03-22T00:44:39;101863.56;;;9.82
29549;BMP280;16487;53.094;8.800;2024-03-22T00:47:05;101861.34;;;9.91
29549;BMP280;16487;53.094;8.800;2024-03-22T00:49:33;101850.81;;;9.89
29549;BMP280;16487;53.094;8.800;2024-03-22T00:51:59;101851.16;;;9.93
29549;BMP280;16487;53.094;8.800;2024-03-22T00:54:25;101842.75;;;9.89
29549;BMP280;16487;53.094;8.800;2024-03-22T00:56:51;101841.19;;;9.93
29549;BMP280;16487;53.094;8.800;2024-03-22T00:59:18;101851.16;;;9.93
29549;BMP280;16487;53.094;8.800;2024-03-22T01:01:44;101852.09;;;9.98
29549;BMP280;16487;53.094;8.800;2024-03-22T01:04:11;101842.25;;;9.92
29549;BMP280;16487;53.094;8.800;2024-03-22T01:06:39;101846.47;;;10.00
29549;BMP280;16487;53.094;8.800;2024-03-22T01:09:06;101852.91;;;9.99
29549;BMP280;16487;53.094;8.800;2024-03-22T01:11:32;101850.69;;;9.96
29549;BMP280;16487;53.094;8.800;2024-03-22T01:13:59;101835.13;;;9.98
29549;BMP280;16487;53.094;8.800;2024-03-22T01:16:25;101834.06;;;9.99
29549;BMP280;16487;53.094;8.800;2024-03-22T01:18:51;101826.31;;;10.03
29549;BMP280;16487;53.094;8.800;2024-03-22T01:21:17;101811.13;;;9.96
29549;BMP280;16487;53.094;8.800;2024-03-22T01:23:45;101805.97;;;9.95
29549;BMP280;16487;53.094;8.800;2024-03-22T01:26:11;101793.94;;;9.97
29549;BMP280;16487;53.094;8.800;2024-03-22T01:28:37;101791.00;;;9.99
29549;BMP280;16487;53.094;8.800;2024-03-22T01:31:03;101782.91;;;9.99
29549;BMP280;16487;53.094;8.800;2024-03-22T01:33:31;101783.84;;;10.05
29549;BMP280;16487;53.094;8.800;2024-03-22T01:35:57;101775.16;;;10.03
29549;BMP280;16487;53.094;8.800;2024-03-22T01:38:23;101768.03;;;10.08
29549;BMP280;16487;53.094;8.800;2024-03-22T01:40:52;101759.59;;;10.05
29549;BMP280;16487;53.094;8.800;2024-03-22T01:43:19;101744.75;;;10.02
29549;BMP280;16487;53.094;8.800;2024-03-22T01:45:45;101742.06;;;10.02
29549;BMP280;16487;53.094;8.800;2024-03-22T01:48:11;101736.09;;;10.00
29549;BMP280;16487;53.094;8.800;2024-03-22T01:50:38;101730.44;;;10.02
29549;BMP280;16487;53.094;8.800;2024-03-22T01:53:05;101739.94;;;10.04
29549;BMP280;16487;53.094;8.800;2024-03-22T01:55:31;101733.72;;;10.04
29549;BMP280;16487;53.094;8.800;2024-03-22T01:57:58;101734.06;;;10.07
29549;BMP280;16487;53.094;8.800;2024-03-22T02:00:25;101724.66;;;10.10
29549;BMP280;16487;53.094;8.800;2024-03-22T02:02:51;101727.88;;;10.07
29549;BMP280;16487;53.094;8.800;2024-03-22T02:05:18;101726.00;;;10.07
29549;BMP280;16487;53.094;8.800;2024-03-22T02:07:44;101723.31;;;10.07
29549;BMP280;16487;53.094;8.800;2024-03-22T02:10:11;101710.09;;;10.06
29549;BMP280;16487;53.094;8.800;2024-03-22T02:12:38;101724.34;;;10.06
29549;BMP280;16487;53.094;8.800;2024-03-22T02:15:07;101715.88;;;10.14
29549;BMP280;16487;53.094;8.800;2024-03-22T02:17:34;101712.53;;;10.07
29549;BMP280;16487;53.094;8.800;2024-03-22T02:20:01;101701.84;;;10.12
29549;BMP280;16487;53.094;8.800;2024-03-22T02:22:27;101696.44;;;10.12
29549;BMP280;16487;53.094;8.800;2024-03-22T02:24:55;101685.94;;;10.11
29549;BMP280;16487;53.094;8.800;2024-03-22T02:27:21;101683.47;;;10.09
29549;BMP280;16487;53.094;8.800;2024-03-22T02:29:47;101675.41;;;10.09
29549;BMP280;16487;53.094;8.800;2024-03-22T02:32:13;101664.91;;;10.08
29549;BMP280;16487;53.094;8.800;2024-03-22T02:34:39;101659.53;;;10.08
29549;BMP280;16487;53.094;8.800;2024-03-22T02:37:06;101644.06;;;10.03
29549;BMP280;16487;53.094;8.800;2024-03-22T02:39:32;101647.09;;;10.07
29549;BMP280;16487;53.094;8.800;2024-03-22T02:41:59;101650.34;;;10.09
29549;BMP280;16487;53.094;8.800;2024-03-22T02:44:26;101641.63;;;10.19
29549;BMP280;16487;53.094;8.800;2024-03-22T02:46:52;101648.09;;;10.18
29549;BMP280;16487;53.094;8.800;2024-03-22T02:49:18;101645.41;;;10.18
29549;BMP280;16487;53.094;8.800;2024-03-22T02:51:44;101641.88;;;10.17
29549;BMP280;16487;53.094;8.800;2024-03-22T02:54:10;101642.19;;;10.21
29549;BMP280;16487;53.094;8.800;2024-03-22T02:56:36;101638.44;;;10.22
29549;BMP280;16487;53.094;8.800;2024-03-22T02:59:04;101627.34;;;10.18
29549;BMP280;16487;53.094;8.800;2024-03-22T03:01:30;101617.50;;;10.24
29549;BMP280;16487;53.094;8.800;2024-03-22T03:03:56;101603.38;;;10.17
29549;BMP280;16487;53.094;8.800;2024-03-22T03:06:23;101610.81;;;10.26
29549;BMP280;16487;53.094;8.800;2024-03-22T03:09:14;101599.22;;;10.26
29549;BMP280;16487;53.094;8.800;2024-03-22T03:11:40;101601.91;;;10.26
29549;BMP280;16487;53.094;8.800;2024-03-22T03:14:08;101589.00;;;10.28
29549;BMP280;16487;53.094;8.800;2024-03-22T03:16:34;101588.69;;;10.24
29549;BMP280;16487;53.094;8.800;2024-03-22T03:19:00;101576.84;;;10.25
29549;BMP280;16487;53.094;8.800;2024-03-22T03:21:26;101567.13;;;10.24
29549;BMP280;16487;53.094;8.800;2024-03-22T03:23:52;101565.81;;;10.27
29549;BMP280;16487;53.094;8.800;2024-03-22T03:26:19;101562.97;;;10.34
29549;BMP280;16487;53.094;8.800;2024-03-22T03:28:46;101559.13;;;10.29
29549;BMP280;16487;53.094;8.800;2024-03-22T03:31:14;101546.47;;;10.30
29549;BMP280;16487;53.094;8.800;2024-03-22T03:33:40;101544.03;;;10.28
29549;BMP280;16487;53.094;8.800;2024-03-22T03:36:06;101554.88;;;10.34
29549;BMP280;16487;53.094;8.800;2024-03-22T03:38:33;101557.06;;;10.37
29549;BMP280;16487;53.094;8.800;2024-03-22T03:40:59;101550.38;;;10.39
29549;BMP280;16487;53.094;8.800;2024-03-22T03:43:25;101543.16;;;10.40
29549;BMP280;16487;53.094;8.800;2024-03-22T03:45:52;101547.44;;;10.41
29549;BMP280;16487;53.094;8.800;2024-03-22T03:48:20;101539.03;;;10.37
29549;BMP280;16487;53.094;8.800;2024-03-22T03:50:56;101532.91;;;10.42
29549;BMP280;16487;53.094;8.800;2024-03-22T03:53:23;101529.69;;;10.40
29549;BMP280;16487;53.094;8.800;2024-03-22T03:55:49;101524.03;;;10.41
29549;BMP280;16487;53.094;8.800;2024-03-22T03:58:15;101519.22;;;10.43
29549;BMP280;16487;53.094;8.800;2024-03-22T04:00:41;101505.19;;;10.41
29549;BMP280;16487;53.094;8.800;2024-03-22T04:03:07;101511.16;;;10.43
29549;BMP280;16487;53.094;8.800;2024-03-22T04:05:35;101506.38;;;10.51
29549;BMP280;16487;53.094;8.800;2024-03-22T04:08:01;101504.75;;;10.49
29549;BMP280;16487;53.094;8.800;2024-03-22T04:10:27;101509.09;;;10.51
29549;BMP280;16487;53.094;8.800;2024-03-22T04:12:54;101506.69;;;10.54
29549;BMP280;16487;53.094;8.800;2024-03-22T04:15:20;101508.25;;;10.50
29549;BMP280;16487;53.094;8.800;2024-03-22T04:17:46;101508.03;;;10.52
29549;BMP280;16487;53.094;8.800;2024-03-22T04:20:12;101501.00;;;10.51
29549;BMP280;16487;53.094;8.800;2024-03-22T04:22:40;101501.38;;;10.59
29549;BMP280;16487;53.094;8.800;2024-03-22T04:25:06;101489.22;;;10.57
29549;BMP280;16487;53.094;8.800;2024-03-22T04:27:35;101490.84;;;10.58
29549;BMP280;16487;53.094;8.800;2024-03-22T04:30:02;101490.31;;;10.61
29549;BMP280;16487;53.094;8.800;2024-03-22T04:32:28;101489.03;;;10.63
29549;BMP280;16487;53.094;8.800;2024-03-22T04:34:54;101484.16;;;10.60
29549;BMP280;16487;53.094;8.800;2024-03-22T04:37:20;101482.50;;;10.59
29549;BMP280;16487;53.094;8.800;2024-03-22T04:39:48;101472.28;;;10.61
29549;BMP280;16487;53.094;8.800;2024-03-22T04:42:14;101478.47;;;10.62
29549;BMP280;16487;53.094;8.800;2024-03-22T04:44:40;101471.16;;;10.57
29549;BMP280;16487;53.094;8.800;2024-03-22T04:47:07;101471.44;;;10.61
29549;BMP280;16487;53.094;8.800;2024-03-22T04:49:33;101481.16;;;10.62
29549;BMP280;16487;53.094;8.800;2024-03-22T04:51:59;101469.44;;;10.68
29549;BMP280;16487;53.094;8.800;2024-03-22T04:54:25;101465.38;;;10.71
29549;BMP280;16487;53.094;8.800;2024-03-22T04:56:53;101473.97;;;10.68
29549;BMP280;16487;53.094;8.800;2024-03-22T04:59:19;101474.53;;;10.70
29549;BMP280;16487;53.094;8.800;2024-03-22T05:01:45;101465.00;;;10.62
29549;BMP280;16487;53.094;8.800;2024-03-22T05:04:11;101468.09;;;10.71
29549;BMP280;16487;53.094;8.800;2024-03-22T05:06:37;101471.09;;;10.74
29549;BMP280;16487;53.094;8.800;2024-03-22T05:09:03;101459.78;;;10.77
29549;BMP280;16487;53.094;8.800;2024-03-22T05:11:29;101455.41;;;10.71
29549;BMP280;16487;53.094;8.800;2024-03-22T05:13:57;101453.28;;;10.73
29549;BMP280;16487;53.094;8.800;2024-03-22T05:16:23;101453.28;;;10.73
29549;BMP280;16487;53.094;8.800;2024-03-22T05:18:50;101456.59;;;10.80
29549;BMP280;16487;53.094;8.800;2024-03-22T05:21:16;101452.84;;;10.81
29549;BMP280;16487;53.094;8.800;2024-03-22T05:23:42;101445.47;;;10.72
29549;BMP280;16487;53.094;8.800;2024-03-22T05:26:08;101450.16;;;10.81
29549;BMP280;16487;53.094;8.800;2024-03-22T05:28:34;101454.78;;;10.86
29549;BMP280;16487;53.094;8.800;2024-03-22T05:31:02;101453.97;;;10.86
29549;BMP280;16487;53.094;8.800;2024-03-22T05:33:28;101453.72;;;10.87
29549;BMP280;16487;53.094;8.800;2024-03-22T05:35:55;101451.84;;;10.88
29549;BMP280;16487;53.094;8.800;2024-03-22T05:38:21;101445.34;;;10.83
29549;BMP280;16487;53.094;8.800;2024-03-22T05:40:50;101442.06;;;10.81
29549;BMP280;16487;53.094;8.800;2024-03-22T05:43:17;101449.72;;;10.90
29549;BMP280;16487;53.094;8.800;2024-03-22T05:45:43;101455.91;;;10.90
29549;BMP280;16487;53.094;8.800;2024-03-22T05:48:10;101449.72;;;10.90
29549;BMP280;16487;53.094;8.800;2024-03-22T05:50:37;101441.88;;;10.88
29549;BMP280;16487;53.094;8.800;2024-03-22T05:53:03;101441.09;;;10.93
29549;BMP280;16487;53.094;8.800;2024-03-22T05:55:29;101433.03;;;10.93
29549;BMP280;16487;53.094;8.800;2024-03-22T05:57:55;101432.81;;;10.99
29549;BMP280;16487;53.094;8.800;2024-03-22T06:00:22;101425.47;;;10.95
29549;BMP280;16487;53.094;8.800;2024-03-22T06:02:48;101420.91;;;10.95
29549;BMP280;16487;53.094;8.800;2024-03-22T06:05:15;101424.47;;;11.01
29549;BMP280;16487;53.094;8.800;2024-03-22T06:07:41;101418.53;;;10.99
29549;BMP280;16487;53.094;8.800;2024-03-22T06:10:08;101422.88;;;11.00
29549;BMP280;16487;53.094;8.800;2024-03-22T06:12:35;101411.50;;;10.98
29549;BMP280;16487;53.094;8.800;2024-03-22T06:15:01;101409.94;;;11.02
29549;BMP280;16487;53.094;8.800;2024-03-22T06:17:27;101407.91;;;11.14
29549;BMP280;16487;53.094;8.800;2024-03-22T06:19:53;101409.72;;;11.09
29549;BMP280;16487;53.094;8.800;2024-03-22T06:22:21;101408.94;;;11.13
29549;BMP280;16487;53.094;8.800;2024-03-22T06:24:47;101394.91;;;11.11
29549;BMP280;16487;53.094;8.800;2024-03-22T06:27:13;101390.09;;;11.18
29549;BMP280;16487;53.094;8.800;2024-03-22T06:29:39;101392.78;;;11.13
29549;BMP280;16487;53.094;8.800;2024-03-22T06:32:06;101405.19;;;11.14
29549;BMP280;16487;53.094;8.800;2024-03-22T06:34:32;101394.88;;;11.06
29549;BMP280;16487;53.094;8.800;2024-03-22T06:36:58;101388.91;;;11.04
29549;BMP280;16487;53.094;8.800;2024-03-22T06:39:26;101381.59;;;10.99
29549;BMP280;16487;53.094;8.800;2024-03-22T06:41:52;101382.09;;;10.96
29549;BMP280;16487;53.094;8.800;2024-03-22T06:44:18;101377.31;;;11.04
29549;BMP280;16487;53.094;8.800;2024-03-22T06:46:44;101378.38;;;11.03
29549;BMP280;16487;53.094;8.800;2024-03-22T06:49:10;101385.94;;;11.06
29549;BMP280;16487;53.094;8.800;2024-03-22T06:51:37;101381.13;;;11.08
29549;BMP280;16487;53.094;8.800;2024-03-22T06:54:03;101382.75;;;11.09
29549;BMP280;16487;53.094;8.800;2024-03-22T06:56:30;101392.19;;;11.06
29549;BMP280;16487;53.094;8.800;2024-03-22T06:58:56;101397.66;;;11.16
29549;BMP280;16487;53.094;8.800;2024-03-22T07:01:22;101397.00;;;11.04
29549;BMP280;16487;53.094;8.800;2024-03-22T07:03:49;101389.38;;;10.96
29549;BMP280;16487;53.094;8.800;2024-03-22T07:06:15;101389.09;;;10.92
29549;BMP280;16487;53.094;8.800;2024-03-22T07:08:42;101379.31;;;10.86
29549;BMP280;16487;53.094;8.800;2024-03-22T07:11:08;101381.72;;;10.82
29549;BMP280;16487;53.094;8.800;2024-03-22T07:13:35;101381.38;;;10.79
29549;BMP280;16487;53.094;8.800;2024-03-22T07:16:02;101360.06;;;10.77
29549;BMP280;16487;53.094;8.800;2024-03-22T07:18:29;101373.81;;;10.76
29549;BMP280;16487;53.094;8.800;2024-03-22T07:20:55;101385.91;;;10.73
29549;BMP280;16487;53.094;8.800;2024-03-22T07:23:21;101376.47;;;10.71
29549;BMP280;16487;53.094;8.800;2024-03-22T07:25:47;101382.06;;;10.69
29549;BMP280;16487;53.094;8.800;2024-03-22T07:28:14;101385.06;;;10.68
29549;BMP280;16487;53.094;8.800;2024-03-22T07:30:41;101396.09;;;10.66
29549;BMP280;16487;53.094;8.800;2024-03-22T07:33:07;101397.72;;;10.67
29549;BMP280;16487;53.094;8.800;2024-03-22T07:35:34;101409.84;;;10.70
29549;BMP280;16487;53.094;8.800;2024-03-22T07:38:00;101405.56;;;10.69
29549;BMP280;16487;53.094;8.800;2024-03-22T07:40:26;101397.19;;;10.70
29549;BMP280;16487;53.094;8.800;2024-03-22T07:42:53;101384.00;;;10.69
29549;BMP280;16487;53.094;8.800;2024-03-22T07:45:19;101395.63;;;10.74
29549;BMP280;16487;53.094;8.800;2024-03-22T07:47:46;101401.25;;;10.73
29549;BMP280;16487;53.094;8.800;2024-03-22T07:50:12;101397.19;;;10.70
29549;BMP280;16487;53.094;8.800;2024-03-22T07:52:38;101405.84;;;10.72
29549;BMP280;16487;53.094;8.800;2024-03-22T07:55:05;101405.03;;;10.72
29549;BMP280;16487;53.094;8.800;2024-03-22T07:57:31;101405.28;;;10.70
29549;BMP280;16487;53.094;8.800;2024-03-22T07:59:57;101401.50;;;10.71
29549;BMP280;16487;53.094;8.800;2024-03-22T08:02:24;101404.75;;;10.68
29549;BMP280;16487;53.094;8.800;2024-03-22T08:04:51;101399.06;;;10.70
29549;BMP280;16487;53.094;8.800;2024-03-22T08:07:17;101402.56;;;10.70
29549;BMP280;16487;53.094;8.800;2024-03-22T08:09:43;101407.44;;;10.68
29549;BMP280;16487;53.094;8.800;2024-03-22T08:12:10;101399.88;;;10.70
29549;BMP280;16487;53.094;8.800;2024-03-22T08:14:36;101402.34;;;10.72
29549;BMP280;16487;53.094;8.800;2024-03-22T08:17:02;101401.50;;;10.71
29549;BMP280;16487;53.094;8.800;2024-03-22T08:19:28;101406.41;;;10.74
29549;BMP280;16487;53.094;8.800;2024-03-22T08:21:56;101391.44;;;10.83
29549;BMP280;16487;53.094;8.800;2024-03-22T08:24:22;101402.22;;;10.83
29549;BMP280;16487;53.094;8.800;2024-03-22T08:26:48;101396.81;;;10.83
29549;BMP280;16487;53.094;8.800;2024-03-22T08:29:14;101383.34;;;10.83
29549;BMP280;16487;53.094;8.800;2024-03-22T08:31:40;101386.31;;;10.87
29549;BMP280;16487;53.094;8.800;2024-03-22T08:34:07;101380.09;;;10.87
29549;BMP280;16487;53.094;8.800;2024-03-22T08:36:33;101379.34;;;10.91
29549;BMP280;16487;53.094;8.800;2024-03-22T08:39:01;101385.59;;;10.92
29549;BMP280;16487;53.094;8.800;2024-03-22T08:41:27;101378.00;;;10.94
29549;BMP280;16487;53.094;8.800;2024-03-22T08:43:53;101391.00;;;10.97
29549;BMP280;16487;53.094;8.800;2024-03-22T08:46:20;101387.00;;;10.99
29549;BMP280;16487;53.094;8.800;2024-03-22T08:48:46;101375.13;;;11.00
29549;BMP280;16487;53.094;8.800;2024-03-22T08:51:12;101373.78;;;11.03
29549;BMP280;16487;53.094;8.800;2024-03-22T08:53:38;101366.84;;;11.07
29549;BMP280;16487;53.094;8.800;2024-03-22T08:56:06;101378.13;;;11.04
29549;BMP280;16487;53.094;8.800;2024-03-22T08:58:32;101366.28;;;11.05
29549;BMP280;16487;53.094;8.800;2024-03-22T09:00:58;101374.09;;;11.07
29549;BMP280;16487;53.094;8.800;2024-03-22T09:03:25;101361.69;;;11.06
29549;BMP280;16487;53.094;8.800;2024-03-22T09:05:52;101366.59;;;11.09
29549;BMP280;16487;53.094;8.800;2024-03-22T09:08:18;101360.91;;;11.10
29549;BMP280;16487;53.094;8.800;2024-03-22T09:10:45;101362.84;;;11.15
29549;BMP280;16487;53.094;8.800;2024-03-22T09:13:12;101366.88;;;11.12
29549;BMP280;16487;53.094;8.800;2024-03-22T09:15:39;101360.16;;;11.15
29549;BMP280;16487;53.094;8.800;2024-03-22T09:18:05;101363.06;;;11.08
29549;BMP280;16487;53.094;8.800;2024-03-22T09:20:31;101343.38;;;11.08
29549;BMP280;16487;53.094;8.800;2024-03-22T09:22:57;101351.72;;;11.06
29549;BMP280;16487;53.094;8.800;2024-03-22T09:25:23;101345.50;;;11.06
29549;BMP280;16487;53.094;8.800;2024-03-22T09:27:50;101345.81;;;11.09
29549;BMP280;16487;53.094;8.800;2024-03-22T09:30:17;101339.03;;;11.02
29549;BMP280;16487;53.094;8.800;2024-03-22T09:32:43;101340.13;;;11.06
29549;BMP280;16487;53.094;8.800;2024-03-22T09:35:10;101342.81;;;11.06
29549;BMP280;16487;53.094;8.800;2024-03-22T09:37:36;101346.88;;;11.08
29549;BMP280;16487;53.094;8.800;2024-03-22T09:40:02;101346.66;;;11.10
29549;BMP280;16487;53.094;8.800;2024-03-22T09:42:31;101350.09;;;11.05
29549;BMP280;16487;53.094;8.800;2024-03-22T09:44:59;101364.63;;;11.04
29549;BMP280;16487;53.094;8.800;2024-03-22T09:47:27;101347.13;;;11.07
29549;BMP280;16487;53.094;8.800;2024-03-22T09:49:56;101360.34;;;11.08
29549;BMP280;16487;53.094;8.800;2024-03-22T09:52:22;101356.59;;;11.09
29549;BMP280;16487;53.094;8.800;2024-03-22T09:54:49;101366.78;;;11.02
29549;BMP280;16487;53.094;8.800;2024-03-22T09:57:17;101356.28;;;11.06
29549;BMP280;16487;53.094;8.800;2024-03-22T09:59:44;101359.75;;;11.01
29549;BMP280;16487;53.094;8.800;2024-03-22T10:02:11;101343.59;;;11.01
29549;BMP280;16487;53.094;8.800;2024-03-22T10:04:40;101352.41;;;10.96
29549;BMP280;16487;53.094;8.800;2024-03-22T10:07:07;101346.03;;;11.03
29549;BMP280;16487;53.094;8.800;2024-03-22T10:09:33;101335.50;;;11.01
29549;BMP280;16487;53.094;8.800;2024-03-22T10:11:59;101339.31;;;11.05
29549;BMP280;16487;53.094;8.800;2024-03-22T10:14:26;101341.31;;;11.20
29549;BMP280;16487;53.094;8.800;2024-03-22T10:16:52;101338.47;;;11.05
29549;BMP280;16487;53.094;8.800;2024-03-22T10:19:18;101341.63;;;10.91
29549;BMP280;16487;53.094;8.800;2024-03-22T10:21:46;101340.22;;;10.83
29549;BMP280;16487;53.094;8.800;2024-03-22T10:24:12;101336.38;;;10.79
29549;BMP280;16487;53.094;8.800;2024-03-22T10:26:38;101335.81;;;10.77
29549;BMP280;16487;53.094;8.800;2024-03-22T10:29:05;101325.59;;;10.79
29549;BMP280;16487;53.094;8.800;2024-03-22T10:31:32;101335.63;;;10.84
29549;BMP280;16487;53.094;8.800;2024-03-22T10:34:02;101323.78;;;10.85
29549;BMP280;16487;53.094;8.800;2024-03-22T10:36:28;101326.88;;;10.99
29549;BMP280;16487;53.094;8.800;2024-03-22T10:38:57;101325.81;;;11.05
29549;BMP280;16487;53.094;8.800;2024-03-22T10:41:24;101336.34;;;11.02
29549;BMP280;16487;53.094;8.800;2024-03-22T10:43:50;101347.25;;;11.22
29549;BMP280;16487;53.094;8.800;2024-03-22T10:46:19;101332.91;;;11.16
29549;BMP280;16487;53.094;8.800;2024-03-22T10:48:46;101336.72;;;11.21
29549;BMP280;16487;53.094;8.800;2024-03-22T10:51:14;101338.56;;;11.15
29549;BMP280;16487;53.094;8.800;2024-03-22T10:53:42;101340.00;;;11.23
29549;BMP280;16487;53.094;8.800;2024-03-22T10:56:11;101348.09;;;11.23
29549;BMP280;16487;53.094;8.800;2024-03-22T10:58:39;101332.13;;;11.16
29549;BMP280;16487;53.094;8.800;2024-03-22T11:01:06;101332.44;;;11.25
29549;BMP280;16487;53.094;8.800;2024-03-22T11:03:32;101333.06;;;11.32
29549;BMP280;16487;53.094;8.800;2024-03-22T11:05:58;101327.09;;;11.35
29549;BMP280;16487;53.094;8.800;2024-03-22T11:08:26;101330.63;;;11.36
29549;BMP280;16487;53.094;8.800;2024-03-22T11:10:53;101329.75;;;11.25
29549;BMP280;16487;53.094;8.800;2024-03-22T11:13:23;101312.50;;;11.26
29549;BMP280;16487;53.094;8.800;2024-03-22T11:15:50;101326.91;;;11.42
29549;BMP280;16487;53.094;8.800;2024-03-22T11:18:17;101314.19;;;11.32
29549;BMP280;16487;53.094;8.800;2024-03-22T11:20:43;101311.28;;;11.44
29549;BMP280;16487;53.094;8.800;2024-03-22T11:23:12;101325.06;;;11.58
29549;BMP280;16487;53.094;8.800;2024-03-22T11:25:38;101310.50;;;11.54
29549;BMP280;16487;53.094;8.800;2024-03-22T11:28:05;101304.78;;;11.45
29549;BMP280;16487;53.094;8.800;2024-03-22T11:30:33;101291.72;;;11.26
29549;BMP280;16487;53.094;8.800;2024-03-22T11:33:01;101273.94;;;11.25
29549;BMP280;16487;53.094;8.800;2024-03-22T11:35:27;101293.31;;;11.17
29549;BMP280;16487;53.094;8.800;2024-03-22T11:37:53;101279.50;;;11.13
29549;BMP280;16487;53.094;8.800;2024-03-22T11:40:25;101276.78;;;11.08
29549;BMP280;16487;53.094;8.800;2024-03-22T11:42:54;101270.84;;;11.06
29549;BMP280;16487;53.094;8.800;2024-03-22T11:45:21;101273.00;;;11.09
29549;BMP280;16487;53.094;8.800;2024-03-22T11:47:49;101275.88;;;10.97
29549;BMP280;16487;53.094;8.800;2024-03-22T11:50:15;101262.19;;;11.04
29549;BMP280;16487;53.094;8.800;2024-03-22T11:52:42;101268.91;;;11.02
29549;BMP280;16487;53.094;8.800;2024-03-22T11:55:08;101272.69;;;11.06
29549;BMP280;16487;53.094;8.800;2024-03-22T11:57:36;101291.34;;;11.07
29549;BMP280;16487;53.094;8.800;2024-03-22T12:00:03;101274.31;;;11.02
29549;BMP280;16487;53.094;8.800;2024-03-22T12:02:38;101270.25;;;10.99
29549;BMP280;16487;53.094;8.800;2024-03-22T12:05:06;101266.16;;;10.96
29549;BMP280;16487;53.094;8.800;2024-03-22T12:07:32;101263.53;;;11.07
29549;BMP280;16487;53.094;8.800;2024-03-22T12:09:59;101274.59;;;11.10
29549;BMP280;16487;53.094;8.800;2024-03-22T12:12:25;101270.59;;;11.13
29549;BMP280;16487;53.094;8.800;2024-03-22T12:14:51;101279.41;;;11.03
29549;BMP280;16487;53.094;8.800;2024-03-22T12:17:18;101264.59;;;11.06
29549;BMP280;16487;53.094;8.800;2024-03-22T12:19:44;101262.97;;;10.99
29549;BMP280;16487;53.094;8.800;2024-03-22T12:22:11;101260.53;;;11.03
29549;BMP280;16487;53.094;8.800;2024-03-22T12:24:38;101252.53;;;11.13
29549;BMP280;16487;53.094;8.800;2024-03-22T12:27:04;101260.66;;;11.18
29549;BMP280;16487;53.094;8.800;2024-03-22T12:29:32;101254.22;;;11.25
29549;BMP280;16487;53.094;8.800;2024-03-22T12:31:58;101259.63;;;11.25
29549;BMP280;16487;53.094;8.800;2024-03-22T12:34:24;101259.56;;;11.20
29549;BMP280;16487;53.094;8.800;2024-03-22T12:36:51;101261.28;;;11.31
29549;BMP280;16487;53.094;8.800;2024-03-22T12:39:18;101264.00;;;11.31
29549;BMP280;16487;53.094;8.800;2024-03-22T12:41:44;101278.84;;;11.33
29549;BMP280;16487;53.094;8.800;2024-03-22T12:44:11;101263.19;;;11.36
29549;BMP280;16487;53.094;8.800;2024-03-22T12:46:37;101257.53;;;11.37
29549;BMP280;16487;53.094;8.800;2024-03-22T12:49:03;101250.50;;;11.36
29549;BMP280;16487;53.094;8.800;2024-03-22T12:51:29;101260.22;;;11.37
29549;BMP280;16487;53.094;8.800;2024-03-22T12:53:56;101248.38;;;11.43
29549;BMP280;16487;53.094;8.800;2024-03-22T12:56:23;101256.50;;;11.48
29549;BMP280;16487;53.094;8.800;2024-03-22T12:58:49;101254.59;;;11.44
29549;BMP280;16487;53.094;8.800;2024-03-22T13:01:15;101245.97;;;11.42
29549;BMP280;16487;53.094;8.800;2024-03-22T13:03:42;101247.53;;;11.38
29549;BMP280;16487;53.094;8.800;2024-03-22T13:06:08;101248.91;;;11.40
29549;BMP280;16487;53.094;8.800;2024-03-22T13:08:34;101239.72;;;11.31
29549;BMP280;16487;53.094;8.800;2024-03-22T13:11:00;101244.03;;;11.37
29549;BMP280;16487;53.094;8.800;2024-03-22T13:13:28;101242.63;;;11.24
29549;BMP280;16487;53.094;8.800;2024-03-22T13:15:56;101241.28;;;11.22
29549;BMP280;16487;53.094;8.800;2024-03-22T13:18:23;101224.78;;;11.18
29549;BMP280;16487;53.094;8.800;2024-03-22T13:20:49;101223.72;;;11.19
29549;BMP280;16487;53.094;8.800;2024-03-22T13:23:15;101220.75;;;11.15
29549;BMP280;16487;53.094;8.800;2024-03-22T13:25:41;101212.56;;;11.00
29549;BMP280;16487;53.094;8.800;2024-03-22T13:28:07;101210.38;;;10.97
29549;BMP280;16487;53.094;8.800;2024-03-22T13:30:35;101220.00;;;10.88
29549;BMP280;16487;53.094;8.800;2024-03-22T13:33:01;101210.88;;;10.94
29549;BMP280;16487;53.094;8.800;2024-03-22T13:35:27;101207.94;;;10.95
29549;BMP280;16487;53.094;8.800;2024-03-22T13:37:59;101215.44;;;10.88
29549;BMP280;16487;53.094;8.800;2024-03-22T13:40:25;101208.16;;;10.94
29549;BMP280;16487;53.094;8.800;2024-03-22T13:42:52;101198.34;;;11.10
29549;BMP280;16487;53.094;8.800;2024-03-22T13:45:21;101201.94;;;11.31
29549;BMP280;16487;53.094;8.800;2024-03-22T13:47:49;101201.38;;;11.29
29549;BMP280;16487;53.094;8.800;2024-03-22T13:50:15;101189.50;;;11.25
29549;BMP280;16487;53.094;8.800;2024-03-22T13:52:41;101187.31;;;11.22